createdAt,value
2022-11-29T00:01:24.863Z,2.10
2022-11-29T00:03:52.023Z,2.10
2022-11-29T00:06:21.045Z,2.15
2022-11-29T00:08:48.053Z,2.11
2022-11-29T00:11:35.825Z,2.09
2022-11-29T00:14:02.826Z,2.10
2022-11-29T00:16:29.712Z,2.13
2022-11-29T00:18:56.604Z,2.13
2022-11-29T00:21:23.384Z,2.12
2022-11-29T00:23:50.162Z,2.12
2022-11-29T00:26:17.000Z,2.12
2022-11-29T00:28:43.782Z,2.07
2022-11-29T00:31:17.633Z,2.08
2022-11-29T00:33:44.665Z,2.11
2022-11-29T00:36:11.728Z,2.12
2022-11-29T00:38:38.580Z,2.12
2022-11-29T00:41:05.783Z,2.08
2022-11-29T00:43:32.606Z,1.87
2022-11-29T00:45:59.447Z,2.12
2022-11-29T00:48:26.263Z,2.11
2022-11-29T00:50:53.083Z,2.09
2022-11-29T00:53:20.106Z,2.08
2022-11-29T00:55:50.452Z,2.02
2022-11-29T00:58:17.395Z,2.10
2022-11-29T01:00:44.242Z,2.08
2022-11-29T01:03:11.072Z,1.98
2022-11-29T01:05:37.904Z,2.00
2022-11-29T01:08:04.925Z,2.08
2022-11-29T01:10:31.705Z,2.06
2022-11-29T01:12:58.504Z,2.02
2022-11-29T01:15:25.387Z,2.00
2022-11-29T01:17:53.523Z,2.06
2022-11-29T01:20:20.451Z,2.01
2022-11-29T01:22:47.259Z,2.04
2022-11-29T01:25:14.123Z,2.05
2022-11-29T01:27:41.028Z,1.98
2022-11-29T01:30:08.664Z,2.02
2022-11-29T01:32:36.069Z,2.00
2022-11-29T01:35:03.452Z,2.03
2022-11-29T01:37:30.247Z,2.01
2022-11-29T01:39:57.043Z,1.95
2022-11-29T01:42:23.900Z,1.94
2022-11-29T01:44:50.612Z,2.01
2022-11-29T01:47:18.166Z,2.00
2022-11-29T01:49:46.004Z,1.97
2022-11-29T01:52:32.373Z,1.94
2022-11-29T01:55:01.065Z,1.95
2022-11-29T01:57:28.084Z,1.95
2022-11-29T01:59:58.350Z,1.96
2022-11-29T02:02:42.551Z,1.97
2022-11-29T02:05:09.625Z,1.97
2022-11-29T02:07:36.565Z,1.98
2022-11-29T02:10:03.656Z,1.97
2022-11-29T02:12:35.320Z,1.98
2022-11-29T02:15:11.186Z,1.97
2022-11-29T02:18:02.767Z,1.97
2022-11-29T02:20:51.202Z,1.98
2022-11-29T02:23:30.189Z,1.96
2022-11-29T02:25:59.481Z,1.94
2022-11-29T02:28:44.658Z,1.94
2022-11-29T02:31:43.702Z,1.93
2022-11-29T02:34:39.989Z,1.83
2022-11-29T02:37:48.727Z,1.94
2022-11-29T02:40:33.992Z,1.92
2022-11-29T02:43:06.559Z,1.93
2022-11-29T02:45:55.077Z,1.92
2022-11-29T02:48:59.301Z,1.93
2022-11-29T02:51:48.503Z,1.90
2022-11-29T02:54:39.345Z,1.92
2022-11-29T02:57:14.824Z,1.91
2022-11-29T02:59:47.457Z,1.90
2022-11-29T03:02:21.711Z,1.88
2022-11-29T03:05:13.968Z,1.90
2022-11-29T03:07:56.095Z,1.87
2022-11-29T03:10:49.749Z,1.89
2022-11-29T03:13:58.773Z,1.89
2022-11-29T03:16:56.430Z,1.89
2022-11-29T03:19:47.044Z,1.88
2022-11-29T03:22:51.163Z,1.88
2022-11-29T03:25:21.174Z,1.87
2022-11-29T03:28:06.611Z,1.78
2022-11-29T03:30:34.756Z,1.81
2022-11-29T03:33:10.062Z,1.83
2022-11-29T03:36:09.624Z,1.84
2022-11-29T03:38:41.606Z,1.77
2022-11-29T03:41:13.383Z,1.82
2022-11-29T03:43:57.171Z,1.75
2022-11-29T03:47:02.474Z,1.78
2022-11-29T03:49:31.524Z,1.75
2022-11-29T03:52:18.971Z,1.77
2022-11-29T03:55:23.049Z,1.76
2022-11-29T03:58:02.215Z,1.74
2022-11-29T04:00:43.249Z,1.74
2022-11-29T04:03:41.042Z,1.73
2022-11-29T04:06:14.664Z,1.67
2022-11-29T04:09:08.769Z,1.69
2022-11-29T04:11:35.462Z,1.67
2022-11-29T04:14:14.372Z,1.69
2022-11-29T04:17:02.804Z,1.66
2022-11-29T04:19:46.659Z,1.65
2022-11-29T04:22:50.842Z,1.62
2022-11-29T04:25:39.228Z,1.60
2022-11-29T04:28:09.184Z,1.61
2022-11-29T04:30:43.521Z,1.49
2022-11-29T04:33:17.423Z,1.36
2022-11-29T04:36:13.012Z,1.57
2022-11-29T04:39:17.155Z,1.56
2022-11-29T04:41:52.885Z,1.55
2022-11-29T04:44:27.685Z,1.44
2022-11-29T04:47:33.089Z,1.54
2022-11-29T04:50:20.955Z,1.54
2022-11-29T04:53:09.484Z,1.54
2022-11-29T04:55:57.689Z,1.53
2022-11-29T04:58:33.140Z,1.53
2022-11-29T05:01:18.036Z,1.53
2022-11-29T05:04:03.383Z,1.52
2022-11-29T05:06:51.887Z,1.48
2022-11-29T05:09:56.647Z,1.51
2022-11-29T05:13:02.445Z,1.50
2022-11-29T05:15:53.934Z,1.51
2022-11-29T05:18:42.806Z,1.50
2022-11-29T05:21:11.426Z,1.35
2022-11-29T05:24:15.460Z,1.50
2022-11-29T05:26:49.529Z,1.49
2022-11-29T05:29:26.410Z,1.49
2022-11-29T05:32:19.651Z,1.48
2022-11-29T05:35:08.941Z,1.41
2022-11-29T05:38:15.102Z,1.46
2022-11-29T05:41:03.727Z,1.47
2022-11-29T05:44:02.188Z,1.47
2022-11-29T05:47:01.102Z,1.46
2022-11-29T05:49:41.463Z,1.45
2022-11-29T05:52:32.127Z,1.46
2022-11-29T05:55:19.929Z,1.46
2022-11-29T05:58:43.579Z,1.44
2022-11-29T06:01:21.424Z,1.46
2022-11-29T06:04:13.223Z,1.47
2022-11-29T06:06:52.502Z,1.43
2022-11-29T06:09:28.694Z,1.43
2022-11-29T06:11:57.763Z,1.42
2022-11-29T06:14:36.188Z,1.39
2022-11-29T06:17:34.335Z,1.41
2022-11-29T06:20:23.532Z,1.35
2022-11-29T06:22:50.566Z,1.39
2022-11-29T06:25:31.726Z,1.32
2022-11-29T06:27:59.166Z,1.37
2022-11-29T06:30:27.885Z,1.36
2022-11-29T06:33:01.306Z,1.37
2022-11-29T06:35:53.067Z,1.36
2022-11-29T06:38:27.865Z,1.33
2022-11-29T06:41:01.386Z,1.36
2022-11-29T06:43:29.063Z,1.35
2022-11-29T06:46:14.511Z,1.36
2022-11-29T06:48:49.848Z,1.36
2022-11-29T06:51:18.615Z,1.31
2022-11-29T06:54:04.635Z,1.35
2022-11-29T06:56:43.517Z,1.37
2022-11-29T06:59:41.358Z,1.36
2022-11-29T07:02:45.278Z,1.36
2022-11-29T07:05:26.007Z,1.36
2022-11-29T07:07:54.605Z,1.38
2022-11-29T07:10:21.943Z,1.38
2022-11-29T07:12:49.378Z,1.37
2022-11-29T07:15:18.410Z,1.39
2022-11-29T07:18:09.695Z,1.42
2022-11-29T07:20:55.196Z,1.41
2022-11-29T07:23:45.776Z,1.42
2022-11-29T07:26:27.158Z,1.39
2022-11-29T07:29:17.804Z,1.42
2022-11-29T07:31:47.549Z,1.43
2022-11-29T07:34:25.572Z,1.46
2022-11-29T07:36:58.618Z,1.40
2022-11-29T07:39:40.937Z,1.46
2022-11-29T07:42:20.196Z,1.48
2022-11-29T07:44:53.176Z,1.45
2022-11-29T07:47:19.934Z,1.50
2022-11-29T07:49:46.742Z,1.45
2022-11-29T07:52:13.986Z,1.54
2022-11-29T07:54:40.851Z,1.55
2022-11-29T07:57:07.649Z,1.51
2022-11-29T07:59:34.426Z,1.57
2022-11-29T08:02:01.270Z,1.58
2022-11-29T08:04:28.214Z,1.61
2022-11-29T08:06:54.976Z,1.62
2022-11-29T08:09:21.707Z,1.63
2022-11-29T08:11:48.905Z,1.65
2022-11-29T08:14:15.687Z,1.71
2022-11-29T08:16:42.459Z,1.64
2022-11-29T08:19:09.273Z,1.67
2022-11-29T08:21:36.021Z,1.66
2022-11-29T08:24:02.965Z,1.74
2022-11-29T08:26:31.775Z,1.77
2022-11-29T08:28:58.844Z,1.77
2022-11-29T08:31:25.677Z,1.78
2022-11-29T08:33:52.510Z,1.80
2022-11-29T08:36:19.978Z,1.80
2022-11-29T08:38:47.079Z,1.85
2022-11-29T08:41:15.132Z,1.79
2022-11-29T08:43:41.907Z,1.87
2022-11-29T08:46:11.462Z,1.89
2022-11-29T08:48:42.099Z,1.92
2022-11-29T08:51:09.020Z,1.94
2022-11-29T08:53:46.460Z,1.90
2022-11-29T08:59:05.677Z,1.97
2022-11-29T09:01:32.630Z,2.00
2022-11-29T09:03:59.555Z,1.99
2022-11-29T09:06:27.596Z,2.01
2022-11-29T09:08:56.380Z,2.04
2022-11-29T09:11:24.506Z,2.06
2022-11-29T09:13:53.282Z,2.02
2022-11-29T09:16:21.716Z,2.12
2022-11-29T09:18:56.067Z,2.14
2022-11-29T09:21:24.664Z,2.15
2022-11-29T09:23:58.101Z,2.19
2022-11-29T09:26:29.463Z,2.24
2022-11-29T09:28:58.002Z,2.24
2022-11-29T09:31:24.912Z,2.29
2022-11-29T09:33:51.986Z,2.26
2022-11-29T09:36:23.718Z,2.34
2022-11-29T09:38:53.548Z,2.32
2022-11-29T09:41:58.079Z,2.38
2022-11-29T09:44:45.696Z,2.35
2022-11-29T09:47:36.887Z,2.42
2022-11-29T09:50:36.747Z,2.45
2022-11-29T09:53:12.591Z,2.45
2022-11-29T09:55:57.726Z,2.45
2022-11-29T09:58:29.328Z,2.44
2022-11-29T10:01:08.105Z,2.50
2022-11-29T10:03:39.420Z,2.52
2022-11-29T10:06:27.923Z,2.52
2022-11-29T10:09:08.281Z,2.49
2022-11-29T10:12:10.605Z,2.53
2022-11-29T10:15:17.976Z,2.62
2022-11-29T10:17:45.481Z,2.65
2022-11-29T10:20:20.047Z,2.54
2022-11-29T10:23:05.661Z,2.60
2022-11-29T10:25:36.340Z,2.69
2022-11-29T10:28:04.438Z,2.65
2022-11-29T10:30:33.122Z,2.69
2022-11-29T10:33:00.414Z,2.72
2022-11-29T10:35:27.438Z,2.71
2022-11-29T10:38:22.740Z,2.67
2022-11-29T10:40:46.175Z,2.70
2022-11-29T10:43:13.031Z,2.68
2022-11-29T10:45:50.994Z,2.75
2022-11-29T10:48:36.827Z,2.73
2022-11-29T10:51:03.964Z,2.76
2022-11-29T10:53:37.164Z,2.71
2022-11-29T10:56:31.231Z,2.76
2022-11-29T10:59:09.445Z,2.75
2022-11-29T11:01:38.507Z,2.75
2022-11-29T11:04:07.489Z,2.74
2022-11-29T11:06:56.264Z,2.75
2022-11-29T11:09:32.740Z,2.75
2022-11-29T11:12:01.831Z,2.71
2022-11-29T11:14:30.963Z,2.76
2022-11-29T11:17:15.297Z,2.77
2022-11-29T11:19:42.177Z,2.78
2022-11-29T11:22:18.794Z,2.79
2022-11-29T11:24:45.814Z,2.78
2022-11-29T11:27:12.772Z,2.78
2022-11-29T11:29:43.919Z,2.80
2022-11-29T11:32:18.207Z,2.80
2022-11-29T11:34:53.020Z,2.75
2022-11-29T11:37:23.016Z,2.74
2022-11-29T11:39:51.662Z,2.73
2022-11-29T11:42:39.023Z,2.74
2022-11-29T11:45:35.469Z,2.79
2022-11-29T11:48:04.941Z,2.74
2022-11-29T11:50:34.383Z,2.71
2022-11-29T11:53:23.120Z,2.77
2022-11-29T11:55:58.889Z,2.75
2022-11-29T11:58:45.879Z,2.76
2022-11-29T12:01:12.637Z,2.75
2022-11-29T12:04:03.743Z,2.74
2022-11-29T12:06:52.731Z,2.72
2022-11-29T12:09:32.858Z,2.70
2022-11-29T12:12:21.271Z,2.68
2022-11-29T12:14:56.804Z,2.66
2022-11-29T12:17:38.687Z,2.64
2022-11-29T12:20:24.323Z,2.62
2022-11-29T12:22:54.146Z,2.60
2022-11-29T12:25:30.166Z,2.61
2022-11-29T12:27:57.029Z,2.56
2022-11-29T12:30:23.843Z,2.58
2022-11-29T12:32:55.160Z,2.58
2022-11-29T12:35:51.286Z,2.56
2022-11-29T12:38:46.124Z,2.51
2022-11-29T12:41:18.809Z,2.53
2022-11-29T12:44:07.871Z,2.51
2022-11-29T12:46:34.834Z,2.45
2022-11-29T12:49:16.800Z,2.46
2022-11-29T12:52:05.599Z,2.43
2022-11-29T12:54:32.345Z,2.42
2022-11-29T12:57:11.369Z,2.42
2022-11-29T12:59:59.188Z,2.40
2022-11-29T13:02:31.371Z,2.39
2022-11-29T13:05:14.219Z,2.35
2022-11-29T13:07:53.361Z,2.36
2022-11-29T13:10:41.629Z,2.35
2022-11-29T13:13:39.179Z,2.34
2022-11-29T13:16:29.269Z,2.28
2022-11-29T13:19:05.961Z,2.26
2022-11-29T13:21:55.942Z,2.29
2022-11-29T13:25:00.003Z,2.31
2022-11-29T13:27:46.170Z,2.31
2022-11-29T13:30:14.422Z,2.30
2022-11-29T13:32:47.866Z,2.28
2022-11-29T13:35:54.888Z,2.26
2022-11-29T13:38:41.167Z,2.17
2022-11-29T13:41:31.405Z,2.19
2022-11-29T13:44:18.786Z,2.26
2022-11-29T13:47:07.541Z,2.25
2022-11-29T13:49:57.400Z,2.22
2022-11-29T13:52:45.884Z,2.20
2022-11-29T13:55:12.673Z,2.19
2022-11-29T14:00:45.224Z,2.16
2022-11-29T14:03:26.165Z,2.14
2022-11-29T14:06:09.980Z,2.12
2022-11-29T14:09:02.499Z,2.12
2022-11-29T14:11:32.253Z,2.04
2022-11-29T14:14:28.947Z,2.06
2022-11-29T14:17:06.201Z,2.05
2022-11-29T14:19:36.941Z,1.97
2022-11-29T14:22:15.799Z,2.03
2022-11-29T14:24:42.952Z,1.94
2022-11-29T14:27:12.725Z,1.98
2022-11-29T14:29:51.096Z,1.97
2022-11-29T14:32:45.732Z,1.95
2022-11-29T14:35:13.070Z,1.95
2022-11-29T14:38:19.426Z,1.92
2022-11-29T14:41:16.028Z,1.90
2022-11-29T14:43:42.864Z,1.86
2022-11-29T14:46:15.794Z,1.87
2022-11-29T14:48:48.746Z,1.81
2022-11-29T14:51:19.628Z,1.75
2022-11-29T14:53:47.434Z,1.67
2022-11-29T14:56:34.866Z,1.82
2022-11-29T14:59:38.972Z,1.81
2022-11-29T15:02:27.549Z,1.76
2022-11-29T15:04:56.105Z,1.78
2022-11-29T15:07:29.862Z,1.78
2022-11-29T15:09:59.886Z,1.77
2022-11-29T15:12:29.502Z,1.77
2022-11-29T15:15:15.045Z,1.76
2022-11-29T15:17:44.559Z,1.75
2022-11-29T15:20:51.551Z,1.72
2022-11-29T15:23:18.916Z,1.72
2022-11-29T15:25:51.009Z,1.69
2022-11-29T15:28:37.982Z,1.71
2022-11-29T15:31:09.336Z,1.70
2022-11-29T15:33:43.066Z,1.66
2022-11-29T15:36:16.561Z,1.60
2022-11-29T15:38:53.669Z,1.65
2022-11-29T15:41:38.362Z,1.58
2022-11-29T15:44:06.461Z,1.65
2022-11-29T15:46:34.837Z,1.54
2022-11-29T15:49:23.993Z,1.63
2022-11-29T15:52:02.274Z,1.62
2022-11-29T15:54:30.415Z,1.62
2022-11-29T15:57:00.748Z,1.50
2022-11-29T15:59:40.135Z,1.51
2022-11-29T16:02:40.113Z,1.58
2022-11-29T16:05:22.917Z,1.56
2022-11-29T16:07:51.934Z,1.50
2022-11-29T16:10:20.929Z,1.57
2022-11-29T16:13:01.455Z,1.54
2022-11-29T16:15:29.539Z,1.54
2022-11-29T16:17:56.410Z,1.50
2022-11-29T16:20:24.528Z,1.52
2022-11-29T16:23:11.414Z,1.52
2022-11-29T16:25:54.048Z,1.52
2022-11-29T16:28:20.895Z,1.44
2022-11-29T16:30:47.678Z,1.44
2022-11-29T16:33:21.411Z,1.46
2022-11-29T16:35:48.368Z,1.51
2022-11-29T16:38:22.262Z,1.48
2022-11-29T16:41:08.317Z,1.50
2022-11-29T16:43:54.158Z,1.51
2022-11-29T16:46:20.980Z,1.49
2022-11-29T16:48:51.154Z,1.47
2022-11-29T16:51:35.924Z,1.42
2022-11-29T16:54:22.408Z,1.47
2022-11-29T16:56:50.484Z,1.43
2022-11-29T16:59:26.703Z,1.48
2022-11-29T17:01:55.127Z,1.48
2022-11-29T17:04:24.473Z,1.46
2022-11-29T17:06:55.207Z,1.48
2022-11-29T17:09:24.566Z,1.39
2022-11-29T17:11:51.543Z,1.46
2022-11-29T17:14:18.380Z,1.36
2022-11-29T17:16:47.779Z,1.42
2022-11-29T17:19:14.760Z,1.45
2022-11-29T17:21:41.552Z,1.43
2022-11-29T17:24:11.887Z,1.45
2022-11-29T17:26:38.728Z,1.41
2022-11-29T17:29:05.508Z,1.34
2022-11-29T17:31:32.604Z,1.40
2022-11-29T17:34:00.811Z,1.42
2022-11-29T17:36:27.729Z,1.35
2022-11-29T17:38:54.520Z,1.34
2022-11-29T17:41:23.234Z,1.39
2022-11-29T17:43:50.743Z,1.41
2022-11-29T17:46:26.074Z,1.34
2022-11-29T17:48:53.183Z,1.36
2022-11-29T17:51:50.767Z,1.36
2022-11-29T17:54:09.246Z,1.28
2022-11-29T17:56:36.044Z,1.37
2022-11-29T17:59:03.822Z,1.35
2022-11-29T18:01:32.383Z,1.36
2022-11-29T18:04:00.645Z,1.33
2022-11-29T18:06:34.192Z,1.35
2022-11-29T18:09:01.593Z,1.33
2022-11-29T18:11:44.946Z,1.31
2022-11-29T18:14:15.693Z,1.33
2022-11-29T18:16:42.837Z,1.34
2022-11-29T18:19:12.254Z,1.32
2022-11-29T18:21:39.240Z,1.21
2022-11-29T18:24:06.605Z,1.33
2022-11-29T18:26:34.188Z,1.32
2022-11-29T18:29:01.195Z,1.29
2022-11-29T18:31:33.154Z,1.23
2022-11-29T18:34:01.318Z,1.30
2022-11-29T18:36:32.642Z,1.23
2022-11-29T18:39:01.357Z,1.28
2022-11-29T18:41:29.262Z,1.26
2022-11-29T18:43:58.215Z,1.24
2022-11-29T18:46:25.686Z,1.27
2022-11-29T18:48:53.129Z,1.23
2022-11-29T18:51:20.244Z,1.26
2022-11-29T18:53:47.177Z,1.06
2022-11-29T18:56:19.181Z,1.24
2022-11-29T18:58:47.422Z,1.24
2022-11-29T19:01:15.895Z,1.21
2022-11-29T19:03:44.965Z,1.22
2022-11-29T19:06:17.056Z,1.16
2022-11-29T19:08:44.083Z,1.21
2022-11-29T19:11:15.173Z,1.19
2022-11-29T19:13:42.068Z,1.19
2022-11-29T19:16:13.043Z,1.16
2022-11-29T19:18:40.233Z,1.16
2022-11-29T19:21:07.764Z,1.08
2022-11-29T19:23:34.728Z,1.08
2022-11-29T19:26:03.321Z,1.14
2022-11-29T19:28:30.610Z,1.12
2022-11-29T19:30:57.620Z,1.08
2022-11-29T19:33:24.718Z,1.07
2022-11-29T19:35:51.661Z,0.99
2022-11-29T19:38:18.592Z,1.07
2022-11-29T19:40:45.554Z,1.06
2022-11-29T19:43:12.581Z,1.09
2022-11-29T19:45:40.512Z,1.07
2022-11-29T19:48:07.508Z,0.97
2022-11-29T19:50:34.364Z,1.07
2022-11-29T19:53:01.267Z,1.07
2022-11-29T19:55:28.175Z,1.00
2022-11-29T19:57:56.312Z,1.03
2022-11-29T20:00:23.245Z,0.97
2022-11-29T20:02:50.312Z,1.04
2022-11-29T20:05:17.362Z,1.02
2022-11-29T20:07:44.256Z,0.98
2022-11-29T20:10:11.693Z,1.01
2022-11-29T20:12:38.619Z,1.02
2022-11-29T20:15:06.228Z,1.01
2022-11-29T20:17:33.130Z,1.00
2022-11-29T20:20:00.057Z,0.98
2022-11-29T20:22:27.016Z,1.01
2022-11-29T20:24:55.021Z,0.99
2022-11-29T20:27:22.329Z,0.95
2022-11-29T20:29:49.299Z,0.99
2022-11-29T20:32:17.023Z,0.91
2022-11-29T20:34:44.239Z,0.97
2022-11-29T20:37:23.224Z,0.98
2022-11-29T20:40:11.101Z,0.95
2022-11-29T20:43:16.682Z,0.98
2022-11-29T20:45:43.900Z,0.91
2022-11-29T20:48:21.826Z,0.97
2022-11-29T20:51:00.441Z,0.94
2022-11-29T20:53:35.279Z,0.95
2022-11-29T20:56:02.738Z,0.91
2022-11-29T20:58:29.636Z,0.96
2022-11-29T21:00:56.937Z,0.95
2022-11-29T21:03:24.238Z,0.93
2022-11-29T21:05:51.709Z,0.93
2022-11-29T21:08:19.105Z,0.94
2022-11-29T21:10:45.991Z,0.90
2022-11-29T21:13:13.450Z,0.91
2022-11-29T21:15:40.759Z,0.90
2022-11-29T21:18:08.104Z,0.87
2022-11-29T21:20:35.170Z,0.97
2022-11-29T21:23:06.960Z,0.94
2022-11-29T21:25:57.537Z,0.97
2022-11-29T21:28:28.234Z,0.94
2022-11-29T21:30:55.351Z,0.97
2022-11-29T21:33:22.488Z,0.97
2022-11-29T21:35:52.615Z,0.92
2022-11-29T21:38:19.775Z,0.95
2022-11-29T21:40:46.732Z,0.95
2022-11-29T21:43:13.645Z,0.98
2022-11-29T21:45:40.570Z,0.95
2022-11-29T21:48:30.291Z,0.96
2022-11-29T21:50:57.173Z,0.97
2022-11-29T21:53:24.172Z,0.87
2022-11-29T21:55:57.045Z,0.90
2022-11-29T21:58:24.628Z,0.97
2022-11-29T22:00:51.917Z,0.92
2022-11-29T22:03:18.871Z,0.93
2022-11-29T22:05:46.956Z,0.92
2022-11-29T22:08:13.969Z,0.98
2022-11-29T22:10:40.896Z,0.89
2022-11-29T22:13:07.849Z,0.95
2022-11-29T22:15:34.762Z,0.97
2022-11-29T22:18:01.695Z,0.98
2022-11-29T22:20:28.593Z,0.88
2022-11-29T22:22:58.695Z,0.88
2022-11-29T22:25:25.877Z,0.97
2022-11-29T22:27:52.745Z,0.97
2022-11-29T22:30:19.710Z,0.93
2022-11-29T22:32:46.637Z,0.97
2022-11-29T22:35:13.569Z,0.91
2022-11-29T22:37:40.454Z,0.96
2022-11-29T22:40:07.774Z,0.88
2022-11-29T22:42:34.720Z,0.86
2022-11-29T22:45:03.926Z,0.91
2022-11-29T22:47:30.878Z,0.95
2022-11-29T22:49:57.809Z,0.92
2022-11-29T22:52:24.746Z,0.93
2022-11-29T22:54:51.644Z,0.93
2022-11-29T22:57:18.604Z,0.96
2022-11-29T22:59:45.452Z,0.93
2022-11-29T23:02:12.400Z,0.92
2022-11-29T23:04:39.307Z,0.94
2022-11-29T23:07:06.240Z,0.95
2022-11-29T23:09:33.124Z,0.94
2022-11-29T23:11:59.990Z,0.94
2022-11-29T23:14:26.851Z,0.88
2022-11-29T23:16:53.791Z,0.92
2022-11-29T23:19:20.769Z,0.96
2022-11-29T23:21:48.034Z,0.95
2022-11-29T23:24:15.398Z,0.91
2022-11-29T23:26:44.539Z,0.95
2022-11-29T23:29:13.588Z,0.91
2022-11-29T23:31:40.563Z,0.92
2022-11-29T23:34:07.790Z,0.96
2022-11-29T23:36:34.735Z,0.91
2022-11-29T23:39:01.591Z,0.96
2022-11-29T23:41:28.595Z,0.95
2022-11-29T23:43:55.491Z,0.89
2022-11-29T23:46:23.422Z,0.88
2022-11-29T23:48:50.470Z,0.95
2022-11-29T23:51:17.568Z,0.95
2022-11-29T23:53:44.528Z,0.95
2022-11-29T23:56:15.639Z,0.94
2022-11-29T23:58:42.912Z,0.94
